createdAt,value
2023-03-26T00:01:46.933Z,96763.03
2023-03-26T00:04:21.702Z,96769.44
2023-03-26T00:06:50.346Z,96763.75
2023-03-26T00:09:18.504Z,96767.44
2023-03-26T00:11:47.503Z,96763.31
2023-03-26T00:14:17.574Z,96758.44
2023-03-26T00:16:47.659Z,96762.34
2023-03-26T00:19:17.140Z,96770.53
2023-03-26T00:21:45.365Z,96764.06
2023-03-26T00:24:15.259Z,96759.38
2023-03-26T00:26:43.431Z,96758.50
2023-03-26T00:29:12.008Z,96758.50
2023-03-26T00:31:41.028Z,96758.41
2023-03-26T00:34:10.514Z,96761.03
2023-03-26T00:36:42.242Z,96756.59
2023-03-26T00:39:10.140Z,96756.19
2023-03-26T00:41:43.058Z,96756.66
2023-03-26T00:44:11.788Z,96744.72
2023-03-26T00:46:39.954Z,96746.78
2023-03-26T00:49:11.113Z,96750.00
2023-03-26T00:51:40.850Z,96741.41
2023-03-26T00:54:08.994Z,96736.97
2023-03-26T00:56:36.994Z,96739.94
2023-03-26T00:59:05.056Z,96736.84
2023-03-26T01:01:33.375Z,96738.53
2023-03-26T01:04:27.570Z,96728.25
2023-03-26T01:06:58.581Z,96722.81
2023-03-26T01:09:33.012Z,96726.69
2023-03-26T01:12:01.374Z,96724.56
2023-03-26T01:14:30.068Z,96724.16
2023-03-26T01:16:59.012Z,96711.44
2023-03-26T01:19:30.433Z,96701.66
2023-03-26T01:22:00.746Z,96702.94
2023-03-26T01:24:30.367Z,96699.41
2023-03-26T01:27:21.212Z,96696.31
2023-03-26T01:29:54.155Z,96685.88
2023-03-26T01:32:35.750Z,96695.00
2023-03-26T01:35:14.153Z,96682.78
2023-03-26T01:37:46.887Z,96678.19
2023-03-26T01:40:17.999Z,96683.34
2023-03-26T01:42:49.436Z,96687.88
2023-03-26T01:45:18.993Z,96680.88
2023-03-26T01:47:46.968Z,96681.53
2023-03-26T01:50:15.091Z,96681.00
2023-03-26T01:52:43.238Z,96671.50
2023-03-26T01:55:11.794Z,96675.19
2023-03-26T01:57:47.434Z,96667.31
2023-03-26T02:00:22.716Z,96664.59
2023-03-26T02:02:59.394Z,96666.16
2023-03-26T02:05:29.222Z,96652.13
2023-03-26T02:08:00.428Z,96645.88
2023-03-26T02:10:29.552Z,96652.41
2023-03-26T02:12:58.994Z,96643.31
2023-03-26T02:15:26.889Z,96642.06
2023-03-26T02:17:55.131Z,96636.06
2023-03-26T02:20:23.347Z,96631.84
2023-03-26T02:22:51.240Z,96633.41
2023-03-26T02:25:20.177Z,96625.56
2023-03-26T02:27:49.393Z,96620.38
2023-03-26T02:30:19.788Z,96618.41
2023-03-26T02:32:47.758Z,96617.56
2023-03-26T02:35:15.892Z,96617.44
2023-03-26T02:37:46.955Z,96611.97
2023-03-26T02:40:14.916Z,96603.81
2023-03-26T02:42:43.109Z,96604.50
2023-03-26T02:45:11.183Z,96601.97
2023-03-26T02:47:40.454Z,96600.59
2023-03-26T02:50:09.128Z,96595.00
2023-03-26T02:52:37.451Z,96595.66
2023-03-26T02:55:05.713Z,96597.94
2023-03-26T02:57:34.168Z,96597.09
2023-03-26T03:00:13.267Z,96575.31
2023-03-26T03:02:44.479Z,96579.69
2023-03-26T03:05:12.474Z,96565.81
2023-03-26T03:07:40.402Z,96554.59
2023-03-26T03:10:10.125Z,96559.63
2023-03-26T03:12:38.060Z,96558.19
2023-03-26T03:15:06.660Z,96549.34
2023-03-26T03:17:34.624Z,96555.97
2023-03-26T03:20:05.545Z,96550.63
2023-03-26T03:22:33.591Z,96545.00
2023-03-26T03:25:01.688Z,96543.63
2023-03-26T03:27:29.612Z,96540.94
2023-03-26T03:29:59.074Z,96538.69
2023-03-26T03:32:27.732Z,96549.34
2023-03-26T03:34:56.490Z,96533.78
2023-03-26T03:37:27.053Z,96534.50
2023-03-26T03:39:55.025Z,96529.00
2023-03-26T03:42:23.326Z,96532.94
2023-03-26T03:44:51.417Z,96518.78
2023-03-26T03:47:20.459Z,96526.63
2023-03-26T03:49:48.822Z,96515.66
2023-03-26T03:52:18.267Z,96514.28
2023-03-26T03:54:47.703Z,96517.34
2023-03-26T03:57:15.983Z,96511.47
2023-03-26T03:59:47.950Z,96508.09
2023-03-26T04:02:26.430Z,96515.53
2023-03-26T04:04:54.985Z,96507.41
2023-03-26T04:07:23.248Z,96503.19
2023-03-26T04:09:52.573Z,96496.19
2023-03-26T04:12:20.628Z,96495.88
2023-03-26T04:14:48.532Z,96497.56
2023-03-26T04:17:16.732Z,96487.88
2023-03-26T04:19:45.149Z,96483.97
2023-03-26T04:22:13.102Z,96473.72
2023-03-26T04:24:42.298Z,96475.25
2023-03-26T04:27:13.456Z,96474.56
2023-03-26T04:29:43.114Z,96469.78
2023-03-26T04:32:12.708Z,96467.41
2023-03-26T04:34:40.549Z,96462.63
2023-03-26T04:37:08.666Z,96457.13
2023-03-26T04:39:36.535Z,96456.72
2023-03-26T04:42:04.884Z,96444.25
2023-03-26T04:44:34.948Z,96449.31
2023-03-26T04:47:03.128Z,96447.75
2023-03-26T04:49:31.435Z,96443.25
2023-03-26T04:51:59.456Z,96436.09
2023-03-26T04:54:27.344Z,96439.63
2023-03-26T04:56:56.832Z,96430.66
2023-03-26T04:59:29.962Z,96427.16
2023-03-26T05:02:00.290Z,96415.66
2023-03-26T05:04:29.491Z,96411.63
2023-03-26T05:06:58.042Z,96412.72
2023-03-26T05:09:25.917Z,96407.81
2023-03-26T05:11:53.794Z,96406.53
2023-03-26T05:14:22.060Z,96409.34
2023-03-26T05:16:50.334Z,96397.72
2023-03-26T05:19:20.958Z,96387.19
2023-03-26T05:21:49.019Z,96396.31
2023-03-26T05:24:16.984Z,96391.16
2023-03-26T05:26:44.846Z,96386.66
2023-03-26T05:29:13.700Z,96386.66
2023-03-26T05:31:42.017Z,96384.97
2023-03-26T05:34:09.900Z,96389.75
2023-03-26T05:36:39.420Z,96372.78
2023-03-26T05:39:07.565Z,96383.56
2023-03-26T05:41:35.525Z,96386.63
2023-03-26T05:44:03.519Z,96371.81
2023-03-26T05:46:31.422Z,96373.47
2023-03-26T05:48:59.365Z,96363.81
2023-03-26T05:51:27.326Z,96364.53
2023-03-26T05:53:56.626Z,96364.66
2023-03-26T05:56:24.878Z,96353.44
2023-03-26T05:58:52.728Z,96357.91
2023-03-26T06:01:20.826Z,96349.66
2023-03-26T06:03:49.277Z,96345.81
2023-03-26T06:06:18.031Z,96344.00
2023-03-26T06:08:46.934Z,96346.13
2023-03-26T06:11:16.551Z,96339.53
2023-03-26T06:13:44.573Z,96336.31
2023-03-26T06:16:27.419Z,96326.31
2023-03-26T06:18:57.272Z,96328.00
2023-03-26T06:21:25.974Z,96326.28
2023-03-26T06:23:53.875Z,96319.59
2023-03-26T06:26:23.149Z,96315.94
2023-03-26T06:28:51.284Z,96316.78
2023-03-26T06:31:19.591Z,96308.38
2023-03-26T06:33:48.857Z,96309.81
2023-03-26T06:36:17.182Z,96304.72
2023-03-26T06:38:45.237Z,96315.28
2023-03-26T06:41:13.556Z,96301.09
2023-03-26T06:43:43.062Z,96309.25
2023-03-26T06:46:11.187Z,96310.53
2023-03-26T06:48:39.193Z,96310.09
2023-03-26T06:51:07.805Z,96313.75
2023-03-26T06:53:35.792Z,96305.72
2023-03-26T06:56:03.798Z,96315.41
2023-03-26T06:58:31.704Z,96306.06
2023-03-26T07:01:01.094Z,96295.50
2023-03-26T07:03:29.543Z,96293.56
2023-03-26T07:05:57.758Z,96296.78
2023-03-26T07:08:26.502Z,96285.59
2023-03-26T07:10:54.885Z,96282.06
2023-03-26T07:13:23.297Z,96283.44
2023-03-26T07:15:51.347Z,96283.78
2023-03-26T07:18:20.850Z,96278.97
2023-03-26T07:20:49.250Z,96276.72
2023-03-26T07:23:20.117Z,96273.91
2023-03-26T07:25:49.735Z,96270.13
2023-03-26T07:28:25.524Z,96268.75
2023-03-26T07:31:08.499Z,96259.78
2023-03-26T07:33:39.846Z,96258.59
2023-03-26T07:36:14.814Z,96261.88
2023-03-26T07:38:48.677Z,96250.31
2023-03-26T07:41:18.696Z,96243.91
2023-03-26T07:44:06.004Z,96238.72
2023-03-26T07:46:37.007Z,96236.00
2023-03-26T07:49:11.791Z,96228.00
2023-03-26T07:51:43.439Z,96233.03
2023-03-26T07:54:12.278Z,96231.66
2023-03-26T07:56:42.129Z,96228.16
2023-03-26T07:59:20.175Z,96232.09
2023-03-26T08:01:56.286Z,96225.22
2023-03-26T08:04:47.461Z,96231.06
2023-03-26T08:07:19.319Z,96223.59
2023-03-26T08:09:54.311Z,96211.00
2023-03-26T08:12:25.461Z,96215.63
2023-03-26T08:14:55.312Z,96215.13
2023-03-26T08:17:31.009Z,96211.09
2023-03-26T08:20:07.617Z,96210.69
2023-03-26T08:22:36.732Z,96201.84
2023-03-26T08:25:18.776Z,96205.31
2023-03-26T08:27:52.426Z,96203.22
2023-03-26T08:30:21.130Z,96201.84
2023-03-26T08:32:51.355Z,96199.66
2023-03-26T08:35:20.747Z,96198.09
2023-03-26T08:37:49.490Z,96195.16
2023-03-26T08:40:20.883Z,96194.75
2023-03-26T08:43:22.890Z,96195.09
2023-03-26T08:45:59.326Z,96195.06
2023-03-26T08:48:58.507Z,96193.47
2023-03-26T08:51:59.151Z,96191.59
2023-03-26T08:54:57.177Z,96191.00
2023-03-26T08:58:08.977Z,96194.13
2023-03-26T09:00:45.866Z,96189.28
2023-03-26T09:03:39.461Z,96192.50
2023-03-26T09:06:34.337Z,96191.84
2023-03-26T09:09:49.715Z,96189.31
2023-03-26T09:12:44.837Z,96192.69
2023-03-26T09:15:35.352Z,96184.00
2023-03-26T09:18:13.074Z,96175.47
2023-03-26T09:21:01.967Z,96179.22
2023-03-26T09:23:44.512Z,96173.69
2023-03-26T09:26:19.532Z,96178.84
2023-03-26T09:29:27.688Z,96164.06
2023-03-26T09:32:07.026Z,96168.78
2023-03-26T09:34:35.839Z,96168.84
2023-03-26T09:37:15.487Z,96164.88
2023-03-26T09:39:54.234Z,96163.38
2023-03-26T09:42:25.702Z,96161.94
2023-03-26T09:45:09.007Z,96151.63
2023-03-26T09:48:01.243Z,96150.59
2023-03-26T09:50:37.320Z,96144.03
2023-03-26T09:53:17.202Z,96152.13
2023-03-26T09:55:51.235Z,96149.44
2023-03-26T09:58:33.252Z,96141.28
2023-03-26T10:01:07.184Z,96149.00
2023-03-26T10:03:40.916Z,96146.88
2023-03-26T10:06:38.823Z,96139.72
2023-03-26T10:09:12.112Z,96139.47
2023-03-26T10:11:52.022Z,96135.22
2023-03-26T10:14:21.918Z,96135.94
2023-03-26T10:16:57.565Z,96131.69
2023-03-26T10:19:46.390Z,96128.59
2023-03-26T10:22:22.451Z,96125.88
2023-03-26T10:25:01.871Z,96119.50
2023-03-26T10:27:39.106Z,96120.56
2023-03-26T10:30:39.736Z,96116.31
2023-03-26T10:33:16.166Z,96118.97
2023-03-26T10:35:49.411Z,96109.72
2023-03-26T10:38:19.716Z,96112.38
2023-03-26T10:40:55.472Z,96114.84
2023-03-26T10:44:08.730Z,96104.69
2023-03-26T10:46:48.598Z,96108.16
2023-03-26T10:49:34.980Z,96099.56
2023-03-26T10:52:03.290Z,96095.13
2023-03-26T10:54:36.820Z,96091.66
2023-03-26T10:57:06.548Z,96085.31
2023-03-26T10:59:34.484Z,96088.53
2023-03-26T11:02:08.294Z,96089.31
2023-03-26T11:04:43.569Z,96082.34
2023-03-26T11:07:16.500Z,96081.72
2023-03-26T11:09:46.450Z,96083.75
2023-03-26T11:12:26.846Z,96078.91
2023-03-26T11:15:01.149Z,96076.03
2023-03-26T11:17:39.436Z,96070.91
2023-03-26T11:20:12.067Z,96073.44
2023-03-26T11:22:46.707Z,96071.59
2023-03-26T11:25:41.864Z,96071.81
2023-03-26T11:28:19.482Z,96062.16
2023-03-26T11:30:49.660Z,96066.53
2023-03-26T11:33:19.639Z,96063.44
2023-03-26T11:35:49.748Z,96061.56
2023-03-26T11:38:20.442Z,96055.31
2023-03-26T11:40:51.091Z,96046.66
2023-03-26T11:43:20.529Z,96042.06
2023-03-26T11:45:48.726Z,96046.66
2023-03-26T11:48:18.881Z,96050.03
2023-03-26T11:50:51.700Z,96049.84
2023-03-26T11:53:21.750Z,96043.59
2023-03-26T11:56:00.962Z,96041.53
2023-03-26T11:58:31.354Z,96053.53
2023-03-26T12:00:59.559Z,96039.22
2023-03-26T12:03:30.258Z,96038.44
2023-03-26T12:06:02.896Z,96042.25
2023-03-26T12:08:34.353Z,96036.22
2023-03-26T12:11:05.701Z,96039.88
2023-03-26T12:13:39.046Z,96041.84
2023-03-26T12:16:13.243Z,96034.19
2023-03-26T12:18:43.343Z,96035.78
2023-03-26T12:21:13.823Z,96035.25
2023-03-26T12:23:52.504Z,96027.34
2023-03-26T12:26:22.072Z,96026.09
2023-03-26T12:28:51.291Z,96021.84
2023-03-26T12:31:19.652Z,96026.72
2023-03-26T12:33:54.038Z,96016.59
2023-03-26T12:36:26.426Z,96027.63
2023-03-26T12:39:17.034Z,96026.00
2023-03-26T12:44:44.186Z,96019.69
2023-03-26T12:44:52.691Z,96029.00
2023-03-26T12:47:56.986Z,96024.59
2023-03-26T12:50:14.468Z,96029.53
2023-03-26T12:52:53.773Z,96023.53
2023-03-26T12:55:35.369Z,96020.09
2023-03-26T12:58:13.898Z,96026.72
2023-03-26T13:00:48.558Z,96017.53
2023-03-26T13:03:22.985Z,96016.00
2023-03-26T13:05:58.371Z,96020.03
2023-03-26T13:08:47.745Z,96019.63
2023-03-26T13:11:19.384Z,96014.97
2023-03-26T13:13:56.435Z,96023.06
2023-03-26T13:16:28.699Z,96016.25
2023-03-26T13:18:57.936Z,96018.84
2023-03-26T13:21:32.246Z,96013.69
2023-03-26T13:24:05.019Z,96012.41
2023-03-26T13:26:41.081Z,96011.75
2023-03-26T13:29:11.210Z,96016.97
2023-03-26T13:31:40.799Z,96011.03
2023-03-26T13:34:12.658Z,96013.78
2023-03-26T13:36:46.678Z,96007.34
2023-03-26T13:39:21.277Z,96008.59
2023-03-26T13:42:07.896Z,96008.28
2023-03-26T13:44:40.697Z,96011.72
2023-03-26T13:47:10.187Z,96018.50
2023-03-26T13:49:39.805Z,96014.84
2023-03-26T13:52:09.127Z,96014.44
2023-03-26T13:54:41.218Z,96020.63
2023-03-26T13:57:11.465Z,96024.88
2023-03-26T13:59:40.608Z,96025.81
2023-03-26T14:02:11.697Z,96022.84
2023-03-26T14:04:40.692Z,96024.69
2023-03-26T14:07:10.653Z,96025.81
2023-03-26T14:09:42.095Z,96028.69
2023-03-26T14:12:23.886Z,96036.63
2023-03-26T14:14:54.326Z,96032.25
2023-03-26T14:17:24.071Z,96033.09
2023-03-26T14:20:25.714Z,96032.34
2023-03-26T14:23:02.104Z,96032.97
2023-03-26T14:25:39.046Z,96036.94
2023-03-26T14:28:15.220Z,96043.25
2023-03-26T14:31:06.166Z,96046.81
2023-03-26T14:33:47.628Z,96051.38
2023-03-26T14:36:20.605Z,96053.66
2023-03-26T14:39:12.849Z,96045.66
2023-03-26T14:41:46.260Z,96049.16
2023-03-26T14:44:48.963Z,96040.66
2023-03-26T14:47:18.283Z,96057.41
2023-03-26T14:50:20.584Z,96061.50
2023-03-26T14:52:50.176Z,96056.97
2023-03-26T14:55:25.009Z,96059.50
2023-03-26T14:58:13.688Z,96064.81
2023-03-26T15:01:20.622Z,96058.56
2023-03-26T15:04:29.034Z,96053.59
2023-03-26T15:07:15.856Z,96057.34
2023-03-26T15:10:16.853Z,96064.59
2023-03-26T15:12:53.665Z,96065.94
2023-03-26T15:15:54.255Z,96068.09
2023-03-26T15:18:57.574Z,96076.53
2023-03-26T15:21:52.226Z,96081.16
2023-03-26T15:24:49.774Z,96070.19
2023-03-26T15:27:52.044Z,96091.78
2023-03-26T15:31:06.613Z,96091.84
2023-03-26T15:34:13.241Z,96106.25
2023-03-26T15:37:16.174Z,96107.91
2023-03-26T15:40:09.215Z,96112.41
2023-03-26T15:42:44.777Z,96118.22
2023-03-26T15:45:22.210Z,96120.38
2023-03-26T15:48:07.584Z,96127.88
2023-03-26T15:50:41.139Z,96136.16
2023-03-26T15:53:19.818Z,96144.44
2023-03-26T15:55:57.221Z,96144.63
2023-03-26T15:58:31.334Z,96151.75
2023-03-26T16:01:10.161Z,96155.13
2023-03-26T16:03:44.504Z,96155.28
2023-03-26T16:06:50.875Z,96162.56
2023-03-26T16:09:51.391Z,96168.75
2023-03-26T16:12:37.011Z,96168.91
2023-03-26T16:15:25.779Z,96175.34
2023-03-26T16:18:22.830Z,96174.78
2023-03-26T16:20:54.643Z,96189.81
2023-03-26T16:23:27.343Z,96191.88
2023-03-26T16:25:55.829Z,96193.56
2023-03-26T16:28:32.631Z,96196.94
2023-03-26T16:31:38.457Z,96206.34
2023-03-26T16:34:27.278Z,96218.81
2023-03-26T16:36:57.994Z,96222.00
2023-03-26T16:39:27.012Z,96221.88
2023-03-26T16:42:08.215Z,96226.34
2023-03-26T16:44:40.500Z,96235.75
2023-03-26T16:47:11.928Z,96242.88
2023-03-26T16:49:48.368Z,96254.34
2023-03-26T16:52:43.185Z,96255.16
2023-03-26T16:55:20.757Z,96260.06
2023-03-26T16:57:56.168Z,96274.09
2023-03-26T17:00:31.449Z,96275.50
2023-03-26T17:03:08.085Z,96276.19
2023-03-26T17:05:37.970Z,96282.47
2023-03-26T17:08:15.025Z,96287.50
2023-03-26T17:10:46.056Z,96293.50
2023-03-26T17:13:16.981Z,96303.44
2023-03-26T17:15:47.110Z,96305.94
2023-03-26T17:18:22.846Z,96309.47
2023-03-26T17:20:55.884Z,96312.69
2023-03-26T17:23:31.774Z,96324.28
2023-03-26T17:26:04.615Z,96330.72
2023-03-26T17:28:48.793Z,96329.22
2023-03-26T17:31:21.537Z,96331.47
2023-03-26T17:33:49.830Z,96338.81
2023-03-26T17:36:37.394Z,96351.09
2023-03-26T17:39:22.930Z,96362.41
2023-03-26T17:41:56.210Z,96364.94
2023-03-26T17:44:47.566Z,96359.56
2023-03-26T17:47:25.108Z,96373.72
2023-03-26T17:49:56.533Z,96381.13
2023-03-26T17:52:26.468Z,96391.63
2023-03-26T17:54:56.530Z,96397.53
2023-03-26T17:57:26.322Z,96389.81
2023-03-26T17:59:57.167Z,96401.03
2023-03-26T18:02:32.847Z,96398.38
2023-03-26T18:05:00.873Z,96418.72
2023-03-26T18:08:19.462Z,96419.84
2023-03-26T18:11:22.709Z,96433.25
2023-03-26T18:14:31.080Z,96438.44
2023-03-26T18:17:00.386Z,96434.00
2023-03-26T18:19:28.591Z,96448.00
2023-03-26T18:21:58.132Z,96451.63
2023-03-26T18:24:27.855Z,96455.25
2023-03-26T18:26:58.448Z,96466.09
2023-03-26T18:29:28.903Z,96466.59
2023-03-26T18:31:58.311Z,96471.22
2023-03-26T18:34:26.654Z,96472.19
2023-03-26T18:37:15.733Z,96481.00
2023-03-26T18:39:44.824Z,96482.34
2023-03-26T18:42:24.826Z,96493.19
2023-03-26T18:44:59.707Z,96496.69
2023-03-26T18:47:30.382Z,96498.28
2023-03-26T18:49:58.644Z,96508.06
2023-03-26T18:52:26.660Z,96510.59
2023-03-26T18:54:55.847Z,96512.41
2023-03-26T18:57:24.710Z,96513.03
2023-03-26T18:59:54.935Z,96521.69
2023-03-26T19:02:23.172Z,96531.84
2023-03-26T19:04:54.262Z,96528.22
2023-03-26T19:07:23.475Z,96530.59
2023-03-26T19:09:52.576Z,96550.88
2023-03-26T19:12:22.905Z,96539.41
2023-03-26T19:14:59.267Z,96551.38
2023-03-26T19:17:28.879Z,96549.44
2023-03-26T19:19:57.378Z,96554.75
2023-03-26T19:22:25.676Z,96554.13
2023-03-26T19:24:56.128Z,96547.75
2023-03-26T19:27:24.213Z,96562.38
2023-03-26T19:29:52.104Z,96568.25
2023-03-26T19:32:22.020Z,96569.00
2023-03-26T19:34:50.742Z,96571.25
2023-03-26T19:37:21.401Z,96570.06
2023-03-26T19:39:51.087Z,96579.72
2023-03-26T19:42:20.606Z,96573.72
2023-03-26T19:44:48.874Z,96582.16
2023-03-26T19:47:18.200Z,96592.88
2023-03-26T19:49:53.074Z,96585.66
2023-03-26T19:52:22.685Z,96581.81
2023-03-26T19:55:00.042Z,96587.22
2023-03-26T19:57:29.440Z,96590.72
2023-03-26T19:59:57.590Z,96589.63
2023-03-26T20:02:25.724Z,96589.50
2023-03-26T20:04:55.127Z,96594.59
2023-03-26T20:10:14.649Z,96599.91
2023-03-26T20:12:42.603Z,96603.75
2023-03-26T20:15:19.216Z,96616.28
2023-03-26T20:17:50.207Z,96617.34
2023-03-26T20:20:19.703Z,96623.50
2023-03-26T20:22:48.221Z,96628.66
2023-03-26T20:27:47.448Z,96633.84
2023-03-26T20:30:19.021Z,96629.06
2023-03-26T20:32:50.337Z,96640.97
2023-03-26T20:35:39.617Z,96632.53
2023-03-26T20:38:09.550Z,96640.22
2023-03-26T20:40:38.303Z,96637.09
2023-03-26T20:43:07.378Z,96645.53
2023-03-26T20:45:35.462Z,96648.31
2023-03-26T20:48:03.742Z,96647.81
2023-03-26T20:50:35.697Z,96654.53
2023-03-26T20:53:05.334Z,96653.94
2023-03-26T20:55:33.607Z,96660.66
2023-03-26T20:58:01.536Z,96652.53
2023-03-26T21:00:32.413Z,96669.84
2023-03-26T21:03:00.647Z,96668.13
2023-03-26T21:05:30.083Z,96681.50
2023-03-26T21:07:58.867Z,96697.63
2023-03-26T21:10:29.754Z,96688.28
2023-03-26T21:12:59.542Z,96695.56
2023-03-26T21:15:29.514Z,96694.50
2023-03-26T21:17:58.156Z,96692.63
2023-03-26T21:20:28.009Z,96694.47
2023-03-26T21:23:00.161Z,96700.59
2023-03-26T21:25:34.028Z,96694.16
2023-03-26T21:28:13.794Z,96704.44
2023-03-26T21:30:42.521Z,96717.28
2023-03-26T21:33:10.431Z,96724.72
2023-03-26T21:35:38.943Z,96726.25
2023-03-26T21:38:09.341Z,96735.38
2023-03-26T21:40:44.468Z,96743.34
2023-03-26T21:43:16.611Z,96756.38
2023-03-26T21:45:45.091Z,96753.00
2023-03-26T21:48:13.699Z,96760.31
2023-03-26T21:50:42.366Z,96765.81
2023-03-26T21:53:12.647Z,96774.00
2023-03-26T21:55:47.536Z,96778.09
2023-03-26T21:58:22.414Z,96778.81
2023-03-26T22:00:57.406Z,96783.50
2023-03-26T22:03:27.635Z,96795.97
2023-03-26T22:05:57.682Z,96800.94
2023-03-26T22:08:28.880Z,96805.88
2023-03-26T22:10:58.213Z,96802.69
2023-03-26T22:13:26.202Z,96815.47
2023-03-26T22:15:54.155Z,96826.31
2023-03-26T22:18:24.521Z,96819.31
2023-03-26T22:20:52.827Z,96833.75
2023-03-26T22:23:21.152Z,96837.56
2023-03-26T22:25:49.080Z,96844.38
2023-03-26T22:28:18.444Z,96883.25
2023-03-26T22:30:46.422Z,96868.75
2023-03-26T22:33:14.430Z,96874.69
2023-03-26T22:35:42.938Z,96881.19
2023-03-26T22:38:11.707Z,96891.84
2023-03-26T22:40:39.797Z,96900.06
2023-03-26T22:43:07.723Z,96905.63
2023-03-26T22:45:37.521Z,96911.56
2023-03-26T22:48:05.792Z,96913.66
2023-03-26T22:50:33.908Z,96915.19
2023-03-26T22:53:02.283Z,96919.22
2023-03-26T22:55:30.283Z,96915.19
2023-03-26T22:57:58.278Z,96936.38
2023-03-26T23:00:26.639Z,96937.03
2023-03-26T23:03:00.524Z,96932.88
2023-03-26T23:05:29.388Z,96947.03
2023-03-26T23:07:57.368Z,96941.63
2023-03-26T23:10:25.584Z,96948.38
2023-03-26T23:12:53.534Z,96954.41
2023-03-26T23:15:22.210Z,96957.22
2023-03-26T23:17:54.912Z,96966.25
2023-03-26T23:20:24.612Z,96964.47
2023-03-26T23:22:52.650Z,96976.25
2023-03-26T23:25:21.259Z,96977.56
2023-03-26T23:27:50.718Z,96978.13
2023-03-26T23:30:19.229Z,96979.34
2023-03-26T23:32:47.463Z,96986.03
2023-03-26T23:35:15.610Z,96997.59
2023-03-26T23:37:44.935Z,97014.50
2023-03-26T23:40:14.097Z,97010.34
2023-03-26T23:42:42.495Z,97020.13
2023-03-26T23:45:12.314Z,97022.97
2023-03-26T23:47:42.518Z,97027.50
2023-03-26T23:50:11.637Z,97031.91
2023-03-26T23:52:39.601Z,97031.06
2023-03-26T23:55:09.888Z,97033.00
2023-03-26T23:57:38.164Z,97050.16
